Hauptseite
METAR-TAF:

METAR-TAF

Flughäfen :

Straßburg, Frankreich

Flughafen Straßburg

Breite: 48-33N, Länge: 007-38E, Höhe: 153 m

Beobachtung

Neuester Wetterbericht von vor 26 Minuten, um 09:30 UTC
Wind 6 kt aus Süd, variierte zwischen Süd/Südost und Süd/Südwest
Temperatur 22°C
Luftfeuchtigkeit 43%
Luftdruck 1027 hPa
Sichtweite 10 km oder mehr
keine Wolken unter 1500 m und keine Kumulonimbus oder Gewitterwolken

METAR: LFST 190930Z AUTO 18006KT 150V210 CAVOK 22/09 Q1027 NOSIG

Zeit: 11:56 (09:56 UTC)

Prognose

Neuester Wetterbericht von vor 4 Stunden und 56 Minuten, um 05:00 UTC
Gültige Prognose vom 19 um 06 UTC bis 20 um 06 UTC
Wind 5 kt aus Nord
Sichtweite 10 km oder mehr
keine Wolken unter 1500 m und keine Kumulonimbus oder Gewitterwolken

TAF: LFST 190500Z 1906/2006 01005KT CAVOK

Wetterbeobachtungen und Prognosen von mehr als 4000 Flughäfen (METAR und TAF Bericht).

Die verfügbaren Stationen werden durch gelbe und rote Markierungen auf der Karte dargestellt.

Führen Sie die Maus auf sie, um den Namen der Station zu sehen.

Darauf klicken, um die Beobachtung von Wetterbeobachtungen und Prognosen zu sehen.

Um die Karte zu ändern : klicken Sie auf den grünen Tasten mit einem schwarzen Kreuz Zum Vergrößern, auf den grünen Button mit einem Gedankenstrich zu verkleinern, oder auf die grünen Pfeile für benachbarte Karten.


METAR-TAF: